GOSM

Ouro Sogui Airport

Matam, Senegal
METAR GOSM 191900Z 32002KT CAVOK 38/17 Q1009
Observed Flight Rules
Jun-19 @ 19:00 UTC (an hour ago) Visual Flight Rules
Wind Visibility Clouds
320° at 2 knots 10,000+ meters
  • Clear skies
Temperatures Readings
Current 38°C / 100°F
Dewpoint 17°C / 63°F
Humidity 29%
Altimeter 29.79" Hg
Pressure 1009 hPa
Elevation 17
METAR GOSM 191900Z 32002KT CAVOK 38/17 Q1009
Observed Flight Rules
Jun-19 @ 19:00 UTC
(an hour ago)
VFR
Wind Visibility
320° at 2 knots 10,000+ meters
Clouds
  • Clear skies
Temperature Dewpoint
38°C / 100°F 17°C / 63°F
Humidity Altimeter Pressure
29% 29.79" Hg 1009 hPa